createdAt,value
2019-03-23T00:00:43.396Z,100874.11
2019-03-23T00:03:13.752Z,100872.68
2019-03-23T00:05:42.040Z,100876.56
2019-03-23T00:08:09.748Z,100878.55
2019-03-23T00:10:37.463Z,100878.55
2019-03-23T00:13:05.009Z,100868.77
2019-03-23T00:15:33.926Z,100868.77
2019-03-23T00:18:01.678Z,100881.18
2019-03-23T00:20:29.318Z,100875.11
2019-03-23T00:22:57.164Z,100883.36
2019-03-23T00:25:24.770Z,100883.36
2019-03-23T00:27:53.749Z,100882.80
2019-03-23T00:30:21.320Z,100882.80
2019-03-23T00:32:49.552Z,100880.01
2019-03-23T00:35:17.191Z,100885.52
2019-03-23T00:37:44.800Z,100885.20
2019-03-23T00:40:12.787Z,100886.72
2019-03-23T00:42:40.742Z,100887.27
2019-03-23T00:45:08.430Z,100887.27
2019-03-23T00:47:35.991Z,100885.55
2019-03-23T00:50:03.639Z,100887.83
2019-03-23T00:52:31.580Z,100894.55
2019-03-23T00:54:59.180Z,100894.55
2019-03-23T00:57:26.769Z,100904.48
2019-03-23T00:59:54.342Z,100904.48
2019-03-23T01:02:22.329Z,100921.23
2019-03-23T01:04:50.042Z,100919.41
2019-03-23T01:07:17.693Z,100927.52
2019-03-23T01:09:45.679Z,100927.52
2019-03-23T01:12:13.516Z,100925.43
2019-03-23T01:14:41.127Z,100923.23
2019-03-23T01:17:08.709Z,100923.23
2019-03-23T01:19:36.588Z,100923.44
2019-03-23T01:22:04.252Z,100919.38
2019-03-23T01:24:31.899Z,100919.38
2019-03-23T01:26:59.763Z,100920.60
2019-03-23T01:29:27.316Z,100920.60
2019-03-23T01:31:54.982Z,100929.43
2019-03-23T01:34:22.853Z,100929.43
2019-03-23T01:36:50.501Z,100926.28
2019-03-23T01:39:18.071Z,100935.67
2019-03-23T01:41:45.718Z,100935.67
2019-03-23T01:44:13.545Z,100929.88
2019-03-23T01:46:41.271Z,100930.42
2019-03-23T01:49:08.865Z,100930.42
2019-03-23T01:51:36.685Z,100927.88
2019-03-23T01:54:04.318Z,100927.88
2019-03-23T01:56:31.918Z,100931.01
2019-03-23T01:58:59.528Z,100931.01
2019-03-23T02:01:27.443Z,100932.47
2019-03-23T02:03:55.499Z,100932.47
2019-03-23T02:06:23.164Z,100931.80
2019-03-23T02:08:50.692Z,100932.84
2019-03-23T02:11:18.715Z,100932.84
2019-03-23T02:13:46.302Z,100932.76
2019-03-23T02:16:16.920Z,100933.76
2019-03-23T02:18:44.822Z,100933.76
2019-03-23T02:21:12.382Z,100943.16
2019-03-23T02:23:40.334Z,100943.16
2019-03-23T02:26:07.977Z,100938.12
2019-03-23T02:28:35.848Z,100940.77
2019-03-23T02:31:03.463Z,100944.56
2019-03-23T02:33:31.123Z,100947.67
2019-03-23T02:35:58.777Z,100950.61
2019-03-23T02:38:28.928Z,100958.86
2019-03-23T02:40:58.577Z,100958.86
2019-03-23T02:43:26.250Z,100962.15
2019-03-23T02:45:55.986Z,100963.38
2019-03-23T02:48:23.610Z,100964.78
2019-03-23T02:50:51.199Z,100964.78
2019-03-23T02:53:18.885Z,100967.25
2019-03-23T02:55:46.828Z,100967.25
2019-03-23T02:58:14.469Z,100977.66
2019-03-23T03:00:42.031Z,100977.66
2019-03-23T03:03:09.667Z,100982.11
2019-03-23T03:05:37.540Z,100982.11
2019-03-23T03:08:05.231Z,100996.02
2019-03-23T03:10:32.784Z,100996.02
2019-03-23T03:13:00.452Z,101002.08
2019-03-23T03:15:28.689Z,101009.09
2019-03-23T03:17:56.658Z,101007.23
2019-03-23T03:20:24.219Z,101002.36
2019-03-23T03:22:51.944Z,101011.12
2019-03-23T03:25:19.831Z,101010.68
2019-03-23T03:27:47.431Z,101010.68
2019-03-23T03:30:15.065Z,101022.52
2019-03-23T03:32:42.677Z,101022.52
2019-03-23T03:35:10.608Z,101022.81
2019-03-23T03:37:38.176Z,101029.77
2019-03-23T03:40:10.198Z,101022.51
2019-03-23T03:42:37.787Z,101022.51
2019-03-23T03:45:05.610Z,101032.28
2019-03-23T03:47:33.291Z,101034.28
2019-03-23T03:50:00.858Z,101034.28
2019-03-23T03:52:28.392Z,101037.03
2019-03-23T03:54:56.355Z,101039.05
2019-03-23T03:57:23.907Z,101044.70
2019-03-23T03:59:51.480Z,101041.41
2019-03-23T04:02:19.070Z,101041.41
2019-03-23T04:04:46.884Z,101047.19
2019-03-23T04:07:14.341Z,101047.19
2019-03-23T04:09:41.871Z,101046.55
2019-03-23T04:12:09.427Z,101041.34
2019-03-23T04:14:37.282Z,101041.34
2019-03-23T04:17:04.937Z,101040.70
2019-03-23T04:19:32.478Z,101057.52
2019-03-23T04:22:00.019Z,101059.88
2019-03-23T04:24:27.913Z,101059.41
2019-03-23T04:26:55.478Z,101059.41
2019-03-23T04:29:23.049Z,101059.11
2019-03-23T04:31:50.658Z,101059.11
2019-03-23T04:34:18.435Z,101067.70
2019-03-23T04:36:45.930Z,101060.58
2019-03-23T04:39:13.843Z,101063.72
2019-03-23T04:41:41.293Z,101063.66
2019-03-23T04:44:09.144Z,101061.22
2019-03-23T04:46:36.612Z,101067.16
2019-03-23T04:49:04.130Z,101067.16
2019-03-23T04:51:31.920Z,101068.95
2019-03-23T04:53:59.421Z,101071.50
2019-03-23T04:56:27.049Z,101074.64
2019-03-23T04:58:54.671Z,101074.16
2019-03-23T05:01:22.471Z,101075.27
2019-03-23T05:03:50.038Z,101080.80
2019-03-23T05:06:17.647Z,101080.80
2019-03-23T05:08:45.211Z,101091.47
2019-03-23T05:11:13.074Z,101085.02
2019-03-23T05:13:40.523Z,101094.75
2019-03-23T05:16:07.991Z,101109.50
2019-03-23T05:18:35.578Z,101109.50
2019-03-23T05:21:03.053Z,101119.23
2019-03-23T05:23:30.599Z,101123.62
2019-03-23T05:25:58.541Z,101129.09
2019-03-23T05:28:26.490Z,101125.41
2019-03-23T05:30:54.082Z,101125.41
2019-03-23T05:33:21.538Z,101130.74
2019-03-23T05:35:48.985Z,101130.74
2019-03-23T05:38:16.796Z,101132.91
2019-03-23T05:40:44.344Z,101137.50
2019-03-23T05:43:12.188Z,101125.35
2019-03-23T05:45:39.668Z,101133.69
2019-03-23T05:48:07.466Z,101136.02
2019-03-23T05:50:34.964Z,101136.02
2019-03-23T05:53:02.503Z,101134.79
2019-03-23T05:55:33.067Z,101129.06
2019-03-23T05:58:02.818Z,101137.34
2019-03-23T06:00:30.372Z,101135.89
2019-03-23T06:02:57.927Z,101139.77
2019-03-23T06:05:25.769Z,101139.70
2019-03-23T06:07:53.613Z,101139.70
2019-03-23T06:10:22.990Z,101143.45
2019-03-23T06:12:50.777Z,101149.79
2019-03-23T06:15:18.323Z,101149.79
2019-03-23T06:17:46.300Z,101158.91
2019-03-23T06:20:14.122Z,101159.39
2019-03-23T06:22:41.648Z,101159.52
2019-03-23T06:25:09.201Z,101159.52
2019-03-23T06:27:36.760Z,101167.86
2019-03-23T06:30:04.614Z,101177.20
2019-03-23T06:32:32.084Z,101177.20
2019-03-23T06:34:59.633Z,101182.05
2019-03-23T06:37:27.226Z,101191.94
2019-03-23T06:39:55.031Z,101191.94
2019-03-23T06:42:22.567Z,101192.32
2019-03-23T06:44:50.132Z,101188.67
2019-03-23T06:47:22.465Z,101188.67
2019-03-23T06:49:50.303Z,101191.94
2019-03-23T06:52:17.832Z,101191.94
2019-03-23T06:54:45.418Z,101197.36
2019-03-23T06:57:15.632Z,101196.03
2019-03-23T06:59:43.467Z,101197.84
2019-03-23T07:02:12.820Z,101199.73
2019-03-23T07:04:40.416Z,101199.73
2019-03-23T07:07:08.299Z,101199.89
2019-03-23T07:09:38.297Z,101205.13
2019-03-23T07:12:06.137Z,101205.13
2019-03-23T07:14:34.004Z,101204.30
2019-03-23T07:17:01.545Z,101208.15
2019-03-23T07:19:31.951Z,101212.52
2019-03-23T07:22:02.101Z,101212.52
2019-03-23T07:24:29.727Z,101210.41
2019-03-23T07:26:57.554Z,101210.41
2019-03-23T07:29:25.167Z,101202.63
2019-03-23T07:31:52.789Z,101208.09
2019-03-23T07:34:23.032Z,101218.50
2019-03-23T07:36:50.647Z,101221.70
2019-03-23T07:39:27.337Z,101223.44
2019-03-23T07:41:49.345Z,101225.41
2019-03-23T07:44:16.873Z,101219.03
2019-03-23T07:46:44.358Z,101226.44
2019-03-23T07:49:12.240Z,101227.63
2019-03-23T07:51:39.827Z,101224.13
2019-03-23T07:54:07.385Z,101224.13
2019-03-23T07:56:35.261Z,101225.54
2019-03-23T07:59:05.116Z,101225.54
2019-03-23T08:01:32.643Z,101233.72
2019-03-23T08:04:00.479Z,101237.08
2019-03-23T08:06:30.770Z,101236.14
2019-03-23T08:08:58.250Z,101236.14
2019-03-23T08:11:26.106Z,101235.05
2019-03-23T08:13:53.690Z,101235.05
2019-03-23T08:16:24.970Z,101236.77
2019-03-23T08:19:11.638Z,101237.08
2019-03-23T08:21:41.172Z,101232.41
2019-03-23T08:24:08.651Z,101230.92
2019-03-23T08:26:36.145Z,101230.92
2019-03-23T08:29:03.771Z,101230.61
2019-03-23T08:31:31.668Z,101235.44
2019-03-23T08:34:01.158Z,101227.30
2019-03-23T08:36:28.718Z,101227.30
2019-03-23T08:38:59.647Z,101226.05
2019-03-23T08:41:27.196Z,101227.89
2019-03-23T08:43:54.816Z,101234.36
2019-03-23T08:46:22.634Z,101229.84
2019-03-23T08:48:50.236Z,101229.84
2019-03-23T08:51:17.837Z,101231.38
2019-03-23T08:53:45.677Z,101223.65
2019-03-23T08:56:13.270Z,101231.69
2019-03-23T08:58:42.809Z,101231.69
2019-03-23T09:01:10.696Z,101231.69
2019-03-23T09:03:38.270Z,101228.48
2019-03-23T09:06:05.906Z,101228.48
2019-03-23T09:08:33.763Z,101230.12
2019-03-23T09:11:01.344Z,101230.12
2019-03-23T09:13:28.852Z,101225.03
2019-03-23T09:15:59.051Z,101227.96
2019-03-23T09:18:26.568Z,101224.20
2019-03-23T09:20:55.776Z,101224.20
2019-03-23T09:23:23.346Z,101226.13
2019-03-23T09:25:50.896Z,101228.76
2019-03-23T09:28:18.813Z,101232.03
2019-03-23T09:30:47.462Z,101235.39
2019-03-23T09:33:15.014Z,101232.47
2019-03-23T09:35:42.973Z,101243.16
2019-03-23T09:38:12.251Z,101243.16
2019-03-23T09:40:40.981Z,101242.38
2019-03-23T09:43:11.538Z,101252.83
2019-03-23T09:45:40.321Z,101252.83
2019-03-23T09:48:07.807Z,101256.75
2019-03-23T09:50:37.233Z,101257.77
2019-03-23T09:53:04.797Z,101257.77
2019-03-23T09:55:32.382Z,101259.33
2019-03-23T09:58:00.541Z,101259.30
2019-03-23T10:00:28.443Z,101262.27
2019-03-23T10:02:55.946Z,101262.27
2019-03-23T10:05:23.741Z,101264.70
2019-03-23T10:07:51.188Z,101264.82
2019-03-23T10:10:22.131Z,101264.82
2019-03-23T10:12:48.296Z,101268.27
2019-03-23T10:15:15.880Z,101270.59
2019-03-23T10:17:43.712Z,101270.59
2019-03-23T10:20:13.976Z,101268.50
2019-03-23T10:22:41.515Z,101271.16
2019-03-23T10:25:09.052Z,101269.84
2019-03-23T10:27:37.014Z,101269.38
2019-03-23T10:30:04.621Z,101269.38
2019-03-23T10:32:32.230Z,101266.22
2019-03-23T10:35:02.845Z,101266.22
2019-03-23T10:37:30.450Z,101254.27
2019-03-23T10:39:58.037Z,101262.36
2019-03-23T10:42:25.824Z,101257.37
2019-03-23T10:44:53.446Z,101253.39
2019-03-23T10:47:21.022Z,101253.39
2019-03-23T10:49:48.834Z,101261.41
2019-03-23T10:52:16.451Z,101261.41
2019-03-23T10:54:43.975Z,101255.05
2019-03-23T10:57:11.727Z,101255.05
2019-03-23T10:59:39.303Z,101254.77
2019-03-23T11:02:06.940Z,101254.77
2019-03-23T11:04:34.770Z,101258.03
2019-03-23T11:07:04.187Z,101258.05
2019-03-23T11:09:34.013Z,101260.31
2019-03-23T11:12:01.813Z,101263.20
2019-03-23T11:14:30.557Z,101255.59
2019-03-23T11:16:59.726Z,101255.59
2019-03-23T11:19:27.537Z,101257.80
2019-03-23T11:21:55.115Z,101258.91
2019-03-23T11:24:29.912Z,101258.91
2019-03-23T11:26:57.710Z,101262.83
2019-03-23T11:29:26.362Z,101266.63
2019-03-23T11:31:54.337Z,101266.63
2019-03-23T11:34:23.778Z,101264.95
2019-03-23T11:36:51.382Z,101266.66
2019-03-23T11:39:19.267Z,101266.66
2019-03-23T11:41:47.094Z,101265.81
2019-03-23T11:44:14.634Z,101262.81
2019-03-23T11:46:42.179Z,101265.94
2019-03-23T11:49:12.012Z,101261.38
2019-03-23T11:51:41.892Z,101261.38
2019-03-23T11:54:09.499Z,101265.60
2019-03-23T11:56:37.261Z,101261.88
2019-03-23T11:59:04.882Z,101261.88
2019-03-23T12:01:32.410Z,101259.06
2019-03-23T12:04:00.230Z,101255.78
2019-03-23T12:06:30.752Z,101255.23
2019-03-23T12:09:00.368Z,101248.84
2019-03-23T12:11:28.278Z,101252.74
2019-03-23T12:13:58.027Z,101254.33
2019-03-23T12:16:25.618Z,101254.33
2019-03-23T12:18:53.462Z,101253.78
2019-03-23T12:21:21.114Z,101251.97
2019-03-23T12:23:50.470Z,101251.97
2019-03-23T12:26:20.173Z,101244.06
2019-03-23T12:28:49.977Z,101241.80
2019-03-23T12:31:17.752Z,101241.80
2019-03-23T12:33:47.548Z,101238.14
2019-03-23T12:36:15.161Z,101238.66
2019-03-23T12:38:42.792Z,101237.78
2019-03-23T12:41:22.768Z,101229.61
2019-03-23T12:43:42.826Z,101224.92
2019-03-23T12:46:10.391Z,101224.92
2019-03-23T12:48:48.845Z,101218.73
2019-03-23T12:51:16.402Z,101221.84
2019-03-23T12:53:44.699Z,101221.84
2019-03-23T12:56:12.533Z,101218.50
2019-03-23T12:58:40.130Z,101218.27
2019-03-23T13:01:10.932Z,101221.91
2019-03-23T13:03:38.839Z,101222.28
2019-03-23T13:06:11.651Z,101227.96
2019-03-23T13:08:41.122Z,101227.96
2019-03-23T13:11:12.178Z,101227.78
2019-03-23T13:13:39.767Z,101230.45
2019-03-23T13:16:07.260Z,101230.28
2019-03-23T13:18:38.068Z,101228.61
2019-03-23T13:21:05.587Z,101228.61
2019-03-23T13:23:34.370Z,101232.09
2019-03-23T13:26:03.806Z,101232.86
2019-03-23T13:28:31.351Z,101229.91
2019-03-23T13:30:59.174Z,101229.91
2019-03-23T13:33:26.723Z,101222.62
2019-03-23T13:35:56.162Z,101220.79
2019-03-23T13:38:25.042Z,101215.81
2019-03-23T13:40:52.505Z,101221.05
2019-03-23T13:43:20.225Z,101212.52
2019-03-23T13:45:51.091Z,101212.52
2019-03-23T13:48:21.622Z,101215.08
2019-03-23T13:50:49.168Z,101215.08
2019-03-23T13:53:22.499Z,101212.41
2019-03-23T13:55:51.504Z,101212.41
2019-03-23T13:58:23.040Z,101213.53
2019-03-23T14:00:48.512Z,101209.76
2019-03-23T14:03:16.098Z,101217.65
2019-03-23T14:05:44.038Z,101206.95
2019-03-23T14:08:11.935Z,101208.29
2019-03-23T14:10:39.486Z,101220.37
2019-03-23T14:13:08.984Z,101210.92
2019-03-23T14:15:36.500Z,101217.25
2019-03-23T14:18:05.246Z,101217.42
2019-03-23T14:20:33.180Z,101211.95
2019-03-23T14:23:02.946Z,101218.88
2019-03-23T14:25:32.949Z,101218.88
2019-03-23T14:28:00.964Z,101212.83
2019-03-23T14:30:28.813Z,101212.83
2019-03-23T14:32:56.415Z,101215.29
2019-03-23T14:35:24.147Z,101217.08
2019-03-23T14:37:54.688Z,101216.80
2019-03-23T14:40:23.400Z,101227.10
2019-03-23T14:42:56.031Z,101221.83
2019-03-23T14:45:29.781Z,101221.83
2019-03-23T14:47:59.630Z,101225.41
2019-03-23T14:50:28.353Z,101225.41
2019-03-23T14:52:55.925Z,101224.40
2019-03-23T14:55:23.528Z,101224.40
2019-03-23T14:57:54.966Z,101236.67
2019-03-23T15:00:22.165Z,101228.37
2019-03-23T15:02:49.702Z,101232.53
2019-03-23T15:05:21.364Z,101227.38
2019-03-23T15:07:50.734Z,101227.38
2019-03-23T15:10:21.307Z,101229.33
2019-03-23T15:12:58.455Z,101232.34
2019-03-23T15:15:28.020Z,101232.34
2019-03-23T15:17:55.568Z,101229.77
2019-03-23T15:20:23.129Z,101227.09
2019-03-23T15:22:50.704Z,101234.55
2019-03-23T15:25:18.504Z,101228.30
2019-03-23T15:27:45.986Z,101228.30
2019-03-23T15:30:13.541Z,101229.19
2019-03-23T15:32:42.896Z,101229.03
2019-03-23T15:35:10.481Z,101231.33
2019-03-23T15:37:38.387Z,101231.33
2019-03-23T15:40:10.090Z,101230.66
2019-03-23T15:42:37.367Z,101224.20
2019-03-23T15:45:07.724Z,101224.20
2019-03-23T15:47:39.464Z,101228.34
2019-03-23T15:50:12.840Z,101228.34
2019-03-23T15:52:40.471Z,101226.17
2019-03-23T15:55:12.861Z,101229.22
2019-03-23T15:57:42.230Z,101229.22
2019-03-23T16:00:09.795Z,101223.03
2019-03-23T16:02:37.629Z,101227.88
2019-03-23T16:05:13.435Z,101231.53
2019-03-23T16:07:43.995Z,101231.53
2019-03-23T16:10:14.599Z,101227.98
2019-03-23T16:12:42.139Z,101231.18
2019-03-23T16:15:09.614Z,101231.18
2019-03-23T16:17:39.040Z,101230.27
2019-03-23T16:20:09.096Z,101230.60
2019-03-23T16:22:36.953Z,101234.48
2019-03-23T16:25:04.708Z,101231.48
2019-03-23T16:27:32.259Z,101232.80
2019-03-23T16:30:02.313Z,101232.80
2019-03-23T16:32:30.239Z,101235.80
2019-03-23T16:35:00.835Z,101233.34
2019-03-23T16:37:28.756Z,101231.18
2019-03-23T16:39:56.956Z,101231.18
2019-03-23T16:42:24.436Z,101228.83
2019-03-23T16:44:52.008Z,101227.31
2019-03-23T16:47:20.977Z,101230.99
2019-03-23T16:49:48.516Z,101230.99
2019-03-23T16:52:19.361Z,101231.68
2019-03-23T16:54:45.603Z,101230.94
2019-03-23T16:57:13.100Z,101231.13
2019-03-23T16:59:40.682Z,101231.81
2019-03-23T17:02:15.894Z,101229.83
2019-03-23T17:04:44.615Z,101232.59
2019-03-23T17:07:14.571Z,101236.17
2019-03-23T17:09:42.162Z,101236.17
2019-03-23T17:12:09.802Z,101241.45
2019-03-23T17:14:37.555Z,101241.45
2019-03-23T17:17:05.539Z,101231.55
2019-03-23T17:19:33.264Z,101231.55
2019-03-23T17:22:04.530Z,101230.42
2019-03-23T17:24:30.616Z,101234.84
2019-03-23T17:26:58.252Z,101234.84
2019-03-23T17:29:28.525Z,101235.52
2019-03-23T17:31:56.091Z,101236.95
2019-03-23T17:34:23.981Z,101237.53
2019-03-23T17:36:58.667Z,101243.47
2019-03-23T17:39:28.128Z,101243.47
2019-03-23T17:41:58.900Z,101237.37
2019-03-23T17:44:26.567Z,101246.32
2019-03-23T17:46:55.614Z,101249.80
2019-03-23T17:49:23.414Z,101249.80
2019-03-23T17:52:05.119Z,101252.18
2019-03-23T17:54:23.114Z,101254.11
2019-03-23T17:56:51.845Z,101245.31
2019-03-23T17:59:21.285Z,101252.66
2019-03-23T18:01:51.952Z,101254.13
2019-03-23T18:04:22.630Z,101251.63
2019-03-23T18:06:50.218Z,101252.22
2019-03-23T18:09:17.714Z,101252.22
2019-03-23T18:11:45.569Z,101257.19
2019-03-23T18:14:13.042Z,101257.64
2019-03-23T18:16:42.835Z,101256.61
2019-03-23T18:19:10.639Z,101245.19
2019-03-23T18:21:45.520Z,101245.19
2019-03-23T18:24:13.077Z,101256.07
2019-03-23T18:26:51.132Z,101260.63
2019-03-23T18:29:11.787Z,101260.63
2019-03-23T18:31:42.262Z,101265.72
2019-03-23T18:34:11.628Z,101269.72
2019-03-23T18:36:40.379Z,101263.97
2019-03-23T18:39:10.592Z,101263.97
2019-03-23T18:41:38.373Z,101275.23
2019-03-23T18:44:15.809Z,101273.15
2019-03-23T18:46:37.651Z,101273.15
2019-03-23T18:49:05.432Z,101269.73
2019-03-23T18:51:33.817Z,101272.48
2019-03-23T18:54:01.395Z,101275.82
2019-03-23T18:56:33.763Z,101275.82
2019-03-23T18:59:05.659Z,101265.44
2019-03-23T19:01:33.481Z,101275.45
2019-03-23T19:04:01.017Z,101273.74
2019-03-23T19:06:28.576Z,101268.49
2019-03-23T19:08:56.799Z,101266.87
2019-03-23T19:11:24.365Z,101266.87
2019-03-23T19:13:54.311Z,101274.13
2019-03-23T19:16:29.090Z,101271.66
2019-03-23T19:18:57.585Z,101272.50
2019-03-23T19:21:25.417Z,101272.50
2019-03-23T19:23:56.031Z,101278.88
2019-03-23T19:26:23.484Z,101278.88
2019-03-23T19:28:51.380Z,101279.38
2019-03-23T19:31:21.777Z,101282.42
2019-03-23T19:33:49.365Z,101282.42
2019-03-23T19:36:21.222Z,101287.25
2019-03-23T19:38:56.994Z,101285.92
2019-03-23T19:41:20.275Z,101285.92
2019-03-23T19:43:50.754Z,101282.42
2019-03-23T19:46:17.403Z,101282.88
2019-03-23T19:48:47.715Z,101281.66
2019-03-23T19:51:15.597Z,101281.66
2019-03-23T19:53:46.159Z,101288.22
2019-03-23T19:56:16.843Z,101285.08
2019-03-23T19:58:44.639Z,101294.34
2019-03-23T20:01:12.243Z,101277.92
2019-03-23T20:03:39.789Z,101291.26
2019-03-23T20:06:09.278Z,101289.55
2019-03-23T20:08:36.980Z,101289.55
2019-03-23T20:11:04.495Z,101290.05
2019-03-23T20:13:32.767Z,101291.92
2019-03-23T20:16:07.730Z,101291.14
2019-03-23T20:18:37.139Z,101295.34
2019-03-23T20:21:05.898Z,101293.72
2019-03-23T20:23:33.530Z,101293.92
2019-03-23T20:26:06.315Z,101294.00
2019-03-23T20:28:35.158Z,101300.95
2019-03-23T20:31:03.029Z,101300.95
2019-03-23T20:33:30.613Z,101291.99
2019-03-23T20:36:00.432Z,101291.99
2019-03-23T20:38:28.083Z,101290.28
2019-03-23T20:40:55.722Z,101295.23
2019-03-23T20:43:23.593Z,101295.23
2019-03-23T20:45:52.850Z,101293.53
2019-03-23T20:48:20.509Z,101293.53
2019-03-23T20:50:48.329Z,101288.27
2019-03-23T20:53:17.855Z,101286.19
2019-03-23T20:55:47.075Z,101286.19
2019-03-23T20:58:17.077Z,101281.89
2019-03-23T21:00:44.599Z,101283.77
2019-03-23T21:03:18.226Z,101283.77
2019-03-23T21:05:49.125Z,101274.64
2019-03-23T21:08:16.329Z,101274.64
2019-03-23T21:10:44.237Z,101272.05
2019-03-23T21:13:12.047Z,101272.05
2019-03-23T21:15:39.676Z,101271.30
2019-03-23T21:18:10.021Z,101272.72
2019-03-23T21:20:40.616Z,101268.92
2019-03-23T21:23:08.126Z,101268.92
2019-03-23T21:25:35.676Z,101266.71
2019-03-23T21:28:05.593Z,101262.83
2019-03-23T21:30:36.171Z,101260.16
2019-03-23T21:33:06.286Z,101257.50
2019-03-23T21:35:38.160Z,101255.20
2019-03-23T21:38:05.740Z,101248.17
2019-03-23T21:40:35.095Z,101253.50
2019-03-23T21:43:08.665Z,101255.38
2019-03-23T21:45:43.614Z,101247.40
2019-03-23T21:48:11.504Z,101249.28
2019-03-23T21:50:47.501Z,101249.28
2019-03-23T21:53:11.114Z,101248.31
2019-03-23T21:55:50.740Z,101248.31
2019-03-23T21:58:21.296Z,101242.34
2019-03-23T22:00:48.935Z,101242.42
2019-03-23T22:03:16.738Z,101243.54
2019-03-23T22:05:46.194Z,101243.54
2019-03-23T22:08:13.763Z,101240.98
2019-03-23T22:10:42.635Z,101243.81
2019-03-23T22:13:13.280Z,101242.84
2019-03-23T22:15:41.579Z,101242.84
2019-03-23T22:18:09.395Z,101246.08
2019-03-23T22:20:39.623Z,101248.37
2019-03-23T22:23:10.932Z,101243.50
2019-03-23T22:25:38.461Z,101243.50
2019-03-23T22:28:05.964Z,101238.74
2019-03-23T22:30:34.111Z,101241.60
2019-03-23T22:33:01.619Z,101241.60
2019-03-23T22:35:30.348Z,101235.59
2019-03-23T22:37:58.172Z,101235.59
2019-03-23T22:40:28.119Z,101229.89
2019-03-23T22:42:55.026Z,101235.67
2019-03-23T22:45:22.840Z,101225.59
2019-03-23T22:47:50.364Z,101223.09
2019-03-23T22:50:17.847Z,101223.09
2019-03-23T22:52:48.003Z,101224.63
2019-03-23T22:55:22.891Z,101224.52
2019-03-23T22:57:54.864Z,101224.52
2019-03-23T23:00:33.932Z,101226.23
2019-03-23T23:03:01.529Z,101220.98
2019-03-23T23:05:29.358Z,101223.27
2019-03-23T23:07:57.174Z,101211.86
2019-03-23T23:10:24.688Z,101207.18
2019-03-23T23:12:52.491Z,101207.18
2019-03-23T23:15:20.040Z,101202.02
2019-03-23T23:17:47.620Z,101202.02
2019-03-23T23:20:15.422Z,101195.93
2019-03-23T23:22:42.908Z,101202.20
2019-03-23T23:25:10.502Z,101202.20
2019-03-23T23:27:38.357Z,101203.23
2019-03-23T23:30:06.150Z,101203.23
2019-03-23T23:32:35.980Z,101205.14
2019-03-23T23:35:03.853Z,101204.08
2019-03-23T23:37:31.306Z,101204.08
2019-03-23T23:40:00.325Z,101209.87
2019-03-23T23:42:28.408Z,101207.70
2019-03-23T23:44:55.970Z,101210.81
2019-03-23T23:47:23.544Z,101204.66
2019-03-23T23:49:54.372Z,101204.35
2019-03-23T23:52:22.484Z,101204.35
2019-03-23T23:54:50.103Z,101201.69
2019-03-23T23:57:18.307Z,101192.53
2019-03-23T23:59:45.895Z,101200.41
